createdAt,value
2018-11-27T00:01:54.052Z,15.87
2018-11-27T00:04:21.469Z,15.70
2018-11-27T00:06:48.937Z,16.40
2018-11-27T00:09:16.379Z,15.67
2018-11-27T00:11:45.012Z,16.03
2018-11-27T00:14:12.470Z,15.20
2018-11-27T00:16:39.900Z,15.37
2018-11-27T00:19:07.358Z,15.10
2018-11-27T00:21:34.804Z,15.93
2018-11-27T00:24:02.274Z,15.30
2018-11-27T00:26:29.718Z,16.23
2018-11-27T00:28:57.169Z,15.77
2018-11-27T00:31:24.610Z,15.20
2018-11-27T00:33:52.054Z,15.70
2018-11-27T00:36:19.504Z,14.57
2018-11-27T00:38:46.950Z,14.50
2018-11-27T00:41:14.393Z,15.63
2018-11-27T00:43:41.850Z,16.63
2018-11-27T00:46:09.305Z,15.07
2018-11-27T00:48:36.759Z,15.57
2018-11-27T00:51:04.212Z,15.63
2018-11-27T00:53:31.682Z,13.47
2018-11-27T00:55:59.153Z,13.43
2018-11-27T00:58:26.628Z,13.90
2018-11-27T01:00:54.059Z,13.87
2018-11-27T01:03:21.522Z,14.20
2018-11-27T01:05:48.969Z,14.53
2018-11-27T01:08:16.423Z,14.77
2018-11-27T01:10:43.877Z,14.70
2018-11-27T01:13:11.321Z,14.23
2018-11-27T01:15:38.769Z,15.13
2018-11-27T01:18:06.239Z,14.83
2018-11-27T01:20:35.091Z,14.13
2018-11-27T01:23:02.535Z,15.30
2018-11-27T01:25:29.994Z,13.83
2018-11-27T01:27:57.433Z,15.17
2018-11-27T01:30:24.880Z,15.37
2018-11-27T01:32:52.330Z,15.67
2018-11-27T01:35:19.766Z,15.20
2018-11-27T01:37:47.197Z,15.40
2018-11-27T01:40:14.636Z,15.60
2018-11-27T01:42:42.082Z,14.10
2018-11-27T01:45:09.538Z,14.93
2018-11-27T01:47:36.955Z,15.33
2018-11-27T01:50:04.391Z,15.47
2018-11-27T01:52:31.842Z,15.10
2018-11-27T01:54:59.522Z,15.73
2018-11-27T01:57:26.987Z,14.27
2018-11-27T01:59:54.425Z,15.00
2018-11-27T02:02:21.876Z,14.67
2018-11-27T02:04:50.129Z,14.70
2018-11-27T02:07:17.703Z,14.80
2018-11-27T02:09:45.153Z,14.60
2018-11-27T02:12:12.591Z,14.97
2018-11-27T02:14:40.038Z,15.40
2018-11-27T02:17:07.490Z,15.53
2018-11-27T02:36:37.385Z,14.03
2018-11-27T02:39:04.847Z,14.37
2018-11-27T02:41:32.281Z,13.80
2018-11-27T02:43:59.771Z,14.97
2018-11-27T02:46:27.196Z,15.13
2018-11-27T02:48:54.668Z,15.37
2018-11-27T02:51:22.107Z,13.47
2018-11-27T02:53:49.571Z,15.27
2018-11-27T02:56:17.014Z,14.67
2018-11-27T02:58:44.490Z,14.73
2018-11-27T03:01:12.878Z,14.70
2018-11-27T03:03:40.367Z,14.67
2018-11-27T03:06:07.809Z,14.40
2018-11-27T03:08:35.270Z,14.40
2018-11-27T03:11:02.732Z,13.93
2018-11-27T03:13:30.169Z,13.63
2018-11-27T03:15:57.632Z,14.27
2018-11-27T03:18:25.059Z,14.07
2018-11-27T03:20:52.495Z,14.20
2018-11-27T03:23:19.936Z,14.53
2018-11-27T03:25:47.381Z,14.00
2018-11-27T03:28:14.819Z,14.13
2018-11-27T03:30:42.297Z,13.87
2018-11-27T03:33:09.731Z,14.60
2018-11-27T03:35:37.195Z,14.67
2018-11-27T03:38:04.626Z,14.17
2018-11-27T03:40:32.085Z,14.00
2018-11-27T03:42:59.522Z,13.73
2018-11-27T03:45:26.960Z,13.73
2018-11-27T03:47:54.442Z,14.13
2018-11-27T03:50:21.885Z,14.73
2018-11-27T03:52:49.342Z,13.53
2018-11-27T03:55:16.789Z,14.53
2018-11-27T03:57:44.221Z,13.67
2018-11-27T04:00:11.631Z,14.47
2018-11-27T04:02:39.087Z,14.00
2018-11-27T04:05:06.537Z,14.43
2018-11-27T04:07:33.987Z,14.60
2018-11-27T04:10:01.437Z,14.90
2018-11-27T04:12:28.891Z,14.73
2018-11-27T04:14:56.357Z,13.13
2018-11-27T04:17:23.780Z,13.50
2018-11-27T04:19:51.257Z,13.77
2018-11-27T04:22:18.708Z,14.23
2018-11-27T04:24:46.176Z,14.33
2018-11-27T04:27:13.634Z,13.50
2018-11-27T04:29:41.076Z,14.73
2018-11-27T04:32:08.537Z,14.13
2018-11-27T04:34:35.993Z,13.70
2018-11-27T04:37:03.428Z,13.13
2018-11-27T04:39:30.881Z,14.10
2018-11-27T04:41:58.309Z,13.60
2018-11-27T04:44:25.766Z,14.97
2018-11-27T04:46:53.214Z,13.70
2018-11-27T04:49:20.673Z,14.33
2018-11-27T04:51:48.112Z,13.80
2018-11-27T04:54:15.568Z,13.43
2018-11-27T04:56:44.112Z,14.07
2018-11-27T04:59:11.590Z,13.80
2018-11-27T05:01:39.058Z,13.50
2018-11-27T05:04:06.519Z,13.93
2018-11-27T05:06:33.987Z,14.30
2018-11-27T05:09:01.445Z,14.43
2018-11-27T05:11:28.916Z,14.07
2018-11-27T05:13:56.357Z,13.37
2018-11-27T05:16:23.819Z,13.50
2018-11-27T05:18:51.248Z,14.43
2018-11-27T05:21:18.707Z,13.63
2018-11-27T05:23:46.146Z,13.87
2018-11-27T05:26:13.604Z,14.03
2018-11-27T05:28:41.074Z,13.23
2018-11-27T05:31:08.503Z,13.90
2018-11-27T05:33:35.950Z,13.30
2018-11-27T05:36:03.424Z,13.67
2018-11-27T05:38:30.884Z,13.83
2018-11-27T05:40:58.322Z,13.13
2018-11-27T05:43:25.770Z,13.27
2018-11-27T05:45:53.201Z,12.77
2018-11-27T05:48:20.674Z,13.80
2018-11-27T05:50:48.115Z,13.03
2018-11-27T05:53:15.607Z,13.43
2018-11-27T05:55:43.039Z,13.10
2018-11-27T05:58:10.489Z,13.37
2018-11-27T06:00:37.953Z,13.20
2018-11-27T06:03:05.416Z,13.50
2018-11-27T06:05:32.859Z,14.07
2018-11-27T06:08:00.346Z,13.40
2018-11-27T06:10:27.809Z,12.70
2018-11-27T06:12:55.262Z,12.77
2018-11-27T06:15:22.719Z,13.00
2018-11-27T06:17:50.154Z,11.83
2018-11-27T06:20:17.604Z,11.87
2018-11-27T06:22:45.078Z,12.60
2018-11-27T06:25:12.531Z,12.50
2018-11-27T06:27:41.078Z,13.03
2018-11-27T06:30:08.519Z,12.77
2018-11-27T06:32:35.955Z,12.93
2018-11-27T06:35:03.420Z,13.47
2018-11-27T06:37:30.846Z,14.30
2018-11-27T06:39:58.289Z,13.23
2018-11-27T06:42:25.732Z,12.43
2018-11-27T06:44:53.149Z,12.87
2018-11-27T06:47:20.587Z,13.27
2018-11-27T06:49:48.015Z,13.33
2018-11-27T06:52:15.479Z,13.20
2018-11-27T06:54:42.896Z,13.47
2018-11-27T06:57:10.384Z,13.57
2018-11-27T06:59:37.842Z,13.43
2018-11-27T07:02:05.280Z,13.10
2018-11-27T07:04:32.717Z,14.10
2018-11-27T07:07:00.136Z,13.87
2018-11-27T07:09:27.595Z,12.67
2018-11-27T07:11:55.030Z,14.00
2018-11-27T07:14:22.496Z,13.40
2018-11-27T07:16:49.933Z,13.27
2018-11-27T07:19:17.375Z,12.83
2018-11-27T07:21:44.850Z,12.57
2018-11-27T07:24:12.329Z,13.43
2018-11-27T07:26:39.773Z,13.63
2018-11-27T07:29:07.247Z,13.13
2018-11-27T07:31:34.676Z,13.70
2018-11-27T07:34:02.117Z,15.37
2018-11-27T07:36:29.573Z,14.50
2018-11-27T07:38:57.002Z,13.60
2018-11-27T07:41:24.440Z,13.03
2018-11-27T07:43:51.888Z,13.77
2018-11-27T07:46:19.346Z,13.30
2018-11-27T07:48:46.793Z,12.20
2018-11-27T07:51:14.236Z,12.03
2018-11-27T08:10:43.943Z,13.07
2018-11-27T08:13:11.386Z,13.00
2018-11-27T08:15:38.810Z,12.77
2018-11-27T08:18:06.475Z,12.87
2018-11-27T08:20:37.072Z,13.57
2018-11-27T08:23:04.678Z,13.00
2018-11-27T08:25:32.102Z,13.73
2018-11-27T08:27:59.559Z,12.63
2018-11-27T08:30:26.980Z,12.73
2018-11-27T08:32:54.431Z,13.13
2018-11-27T08:35:21.891Z,12.60
2018-11-27T08:37:49.311Z,13.60
2018-11-27T08:40:16.775Z,13.40
2018-11-27T08:42:46.238Z,12.73
2018-11-27T08:45:13.859Z,13.83
2018-11-27T08:47:41.280Z,14.10
2018-11-27T08:50:08.732Z,14.17
2018-11-27T08:52:36.892Z,13.77
2018-11-27T08:55:03.678Z,14.33
2018-11-27T08:57:31.103Z,14.30
2018-11-27T08:59:58.571Z,13.93
2018-11-27T09:02:26.015Z,13.83
2018-11-27T09:04:53.454Z,12.47
2018-11-27T09:07:20.878Z,12.73
2018-11-27T09:09:48.335Z,11.70
2018-11-27T09:12:15.767Z,12.37
2018-11-27T09:14:43.226Z,12.07
2018-11-27T09:17:10.665Z,12.17
2018-11-27T09:19:38.114Z,12.33
2018-11-27T09:22:05.659Z,12.17
2018-11-27T09:24:34.389Z,11.97
2018-11-27T09:27:02.017Z,11.43
2018-11-27T09:29:29.495Z,12.00
2018-11-27T09:48:59.481Z,11.70
2018-11-27T09:51:26.936Z,11.70
2018-11-27T09:53:54.366Z,11.07
2018-11-27T09:56:21.816Z,10.63
2018-11-27T09:58:53.061Z,11.73
2018-11-27T10:01:20.556Z,11.27
2018-11-27T10:03:47.994Z,11.53
2018-11-27T10:06:15.467Z,11.67
2018-11-27T10:08:42.915Z,11.47
2018-11-27T10:11:10.339Z,11.40
2018-11-27T10:13:37.790Z,10.90
2018-11-27T10:16:05.259Z,11.43
2018-11-27T10:18:32.700Z,11.47
2018-11-27T10:21:00.151Z,11.63
2018-11-27T10:23:27.590Z,10.73
2018-11-27T10:25:55.020Z,10.17
2018-11-27T10:28:22.468Z,10.00
2018-11-27T10:30:49.904Z,11.47
2018-11-27T10:33:18.118Z,10.60
2018-11-27T10:35:45.568Z,11.10
2018-11-27T10:38:13.011Z,11.50
2018-11-27T10:40:40.453Z,10.93
2018-11-27T10:43:07.876Z,10.13
2018-11-27T10:45:35.321Z,10.70
2018-11-27T10:48:02.788Z,9.73
2018-11-27T10:50:30.359Z,10.00
2018-11-27T10:52:57.790Z,9.87
2018-11-27T10:55:26.185Z,9.47
2018-11-27T10:57:53.745Z,10.17
2018-11-27T11:00:21.217Z,9.57
2018-11-27T11:02:48.679Z,9.63
2018-11-27T11:05:16.111Z,9.10
2018-11-27T11:07:43.639Z,10.10
2018-11-27T11:10:11.115Z,10.37
2018-11-27T11:12:38.555Z,10.50
2018-11-27T11:15:05.992Z,10.27
2018-11-27T11:17:33.422Z,11.47
2018-11-27T11:20:00.903Z,10.37
2018-11-27T11:22:28.345Z,9.33
2018-11-27T11:24:55.827Z,9.60
2018-11-27T11:27:23.280Z,10.30
2018-11-27T11:29:51.678Z,10.20
2018-11-27T11:32:19.235Z,10.37
2018-11-27T11:34:46.700Z,11.03
2018-11-27T11:37:14.154Z,10.40
2018-11-27T11:39:41.611Z,10.37
2018-11-27T11:42:09.076Z,10.23
2018-11-27T11:44:36.510Z,11.37
2018-11-27T11:47:03.939Z,10.57
2018-11-27T11:49:31.385Z,10.03
2018-11-27T11:51:58.800Z,11.20
2018-11-27T11:54:26.275Z,10.27
2018-11-27T11:56:53.751Z,9.37
2018-11-27T11:59:21.204Z,10.40
2018-11-27T12:01:48.624Z,10.40
2018-11-27T12:04:16.059Z,10.03
2018-11-27T12:06:43.484Z,10.67
2018-11-27T12:09:10.953Z,10.80
2018-11-27T12:11:38.373Z,10.30
2018-11-27T12:14:06.356Z,10.33
2018-11-27T12:16:33.796Z,10.23
2018-11-27T12:19:01.223Z,10.10
2018-11-27T12:21:28.669Z,9.30
2018-11-27T12:23:56.110Z,9.47
2018-11-27T12:26:24.433Z,11.10
2018-11-27T12:28:51.951Z,10.20
2018-11-27T12:31:19.396Z,10.10
2018-11-27T12:33:46.824Z,10.10
2018-11-27T12:36:14.276Z,9.93
2018-11-27T12:38:41.706Z,9.17
2018-11-27T12:41:10.359Z,9.60
2018-11-27T12:43:37.519Z,8.67
2018-11-27T12:46:06.246Z,9.50
2018-11-27T12:48:34.690Z,10.30
2018-11-27T12:51:04.125Z,10.23
2018-11-27T12:53:32.549Z,9.40
2018-11-27T13:13:02.884Z,9.13
2018-11-27T13:15:30.346Z,9.40
2018-11-27T13:17:57.756Z,8.47
2018-11-27T13:20:25.229Z,10.07
2018-11-27T13:22:52.658Z,8.73
2018-11-27T13:25:20.090Z,8.93
2018-11-27T13:27:47.523Z,9.53
2018-11-27T13:30:14.980Z,8.23
2018-11-27T13:32:42.395Z,8.57
2018-11-27T13:35:09.843Z,8.33
2018-11-27T13:37:37.299Z,8.20
2018-11-27T13:40:04.724Z,8.37
2018-11-27T13:42:32.174Z,8.27
2018-11-27T13:44:59.647Z,8.10
2018-11-27T13:47:27.070Z,8.00
2018-11-27T13:49:54.495Z,9.23
2018-11-27T13:52:21.935Z,10.50
2018-11-27T13:54:49.355Z,9.20
2018-11-27T13:57:19.565Z,9.73
2018-11-27T13:59:47.019Z,8.90
2018-11-27T14:02:14.447Z,8.73
2018-11-27T14:04:41.878Z,9.47
2018-11-27T14:07:09.328Z,8.27
2018-11-27T14:09:36.784Z,9.03
2018-11-27T14:12:04.209Z,9.33
2018-11-27T14:14:31.667Z,8.30
2018-11-27T14:16:59.098Z,8.40
2018-11-27T14:19:27.468Z,7.97
2018-11-27T14:21:54.997Z,8.07
2018-11-27T14:24:22.453Z,7.93
2018-11-27T14:26:49.852Z,7.60
2018-11-27T14:29:17.294Z,8.17
2018-11-27T14:31:44.732Z,8.57
2018-11-27T14:34:12.193Z,9.07
2018-11-27T14:36:39.653Z,8.37
2018-11-27T14:39:07.109Z,11.50
2018-11-27T14:41:34.578Z,9.73
2018-11-27T14:44:02.021Z,8.57
2018-11-27T14:46:30.222Z,7.93
2018-11-27T14:48:57.737Z,8.97
2018-11-27T14:51:25.159Z,8.53
2018-11-27T14:53:52.660Z,10.60
2018-11-27T14:56:20.880Z,9.60
2018-11-27T14:58:50.857Z,8.80
2018-11-27T15:01:15.862Z,8.67
2018-11-27T15:03:44.325Z,9.30
2018-11-27T15:06:11.795Z,9.13
2018-11-27T15:08:49.164Z,9.60
2018-11-27T15:11:16.626Z,8.60
2018-11-27T15:13:44.062Z,11.60
2018-11-27T15:16:11.542Z,10.53
2018-11-27T15:18:40.021Z,8.43
2018-11-27T15:21:08.471Z,9.00
2018-11-27T16:39:08.043Z,6.80
2018-11-27T16:41:35.584Z,7.27
2018-11-27T16:44:04.116Z,7.47
2018-11-27T16:46:31.570Z,7.07
2018-11-27T16:48:59.076Z,8.30
2018-11-27T16:51:27.777Z,7.87
2018-11-27T16:53:55.398Z,8.03
2018-11-27T16:56:22.852Z,7.27
2018-11-27T16:58:50.292Z,7.83
2018-11-27T17:01:17.729Z,7.80
2018-11-27T17:03:45.163Z,7.83
2018-11-27T17:06:12.613Z,7.00
2018-11-27T17:08:40.051Z,7.20
2018-11-27T17:11:07.525Z,7.43
2018-11-27T17:13:35.759Z,7.60
2018-11-27T17:16:03.312Z,8.10
2018-11-27T17:18:30.767Z,8.20
2018-11-27T17:20:58.202Z,7.07
2018-11-27T17:23:25.627Z,7.90
2018-11-27T17:25:53.075Z,6.70
2018-11-27T17:28:20.537Z,7.23
2018-11-27T17:30:47.975Z,7.20
2018-11-27T17:33:15.387Z,7.67
2018-11-27T17:35:42.845Z,7.73
2018-11-27T17:38:10.292Z,7.60
2018-11-27T17:40:37.758Z,8.27
2018-11-27T17:43:05.192Z,6.73
2018-11-27T17:45:32.601Z,7.97
2018-11-27T17:48:00.081Z,9.30
2018-11-27T17:50:27.522Z,8.07
2018-11-27T17:52:54.948Z,7.90
2018-11-27T17:55:22.405Z,9.53
2018-11-27T17:57:51.772Z,8.47
2018-11-27T18:00:19.345Z,8.53
2018-11-27T18:02:46.834Z,7.57
2018-11-27T18:05:17.905Z,7.43
2018-11-27T18:07:45.361Z,8.13
2018-11-27T18:10:12.808Z,7.67
2018-11-27T18:12:40.225Z,7.63
2018-11-27T18:15:07.689Z,8.53
2018-11-27T18:17:35.151Z,8.90
2018-11-27T18:20:03.274Z,8.13
2018-11-27T18:22:30.763Z,8.17
2018-11-27T18:24:58.199Z,8.00
2018-11-27T18:27:25.677Z,8.60
2018-11-27T18:29:53.127Z,8.70
2018-11-27T18:32:22.549Z,9.47
2018-11-27T18:34:50.492Z,8.77
2018-11-27T18:37:19.237Z,8.77
2018-11-27T18:39:46.688Z,8.83
2018-11-27T18:42:15.352Z,8.40
2018-11-27T18:44:42.794Z,8.30
2018-11-27T18:47:10.254Z,8.13
2018-11-27T18:49:37.697Z,7.30
2018-11-27T18:52:05.201Z,8.47
2018-11-27T18:54:32.743Z,8.53
2018-11-27T18:57:04.021Z,8.33
2018-11-27T18:59:32.542Z,8.93
2018-11-27T19:02:00.769Z,8.93
2018-11-27T19:04:29.384Z,7.93
2018-11-27T19:06:57.888Z,7.80
2018-11-27T19:09:26.538Z,8.50
2018-11-27T19:11:53.990Z,8.27
2018-11-27T19:14:21.424Z,8.57
2018-11-27T19:16:48.868Z,8.70
2018-11-27T19:19:16.352Z,9.73
2018-11-27T19:21:43.784Z,10.47
2018-11-27T19:24:11.220Z,9.10
2018-11-27T19:26:38.659Z,9.53
2018-11-27T19:29:06.096Z,8.93
2018-11-27T19:31:33.532Z,9.23
2018-11-27T19:34:01.017Z,9.37
2018-11-27T19:36:28.456Z,9.63
2018-11-27T19:38:56.842Z,9.53
2018-11-27T19:41:24.717Z,8.33
2018-11-27T19:43:52.331Z,8.70
2018-11-27T19:46:19.818Z,8.53
2018-11-27T19:48:53.303Z,9.73
2018-11-27T19:51:14.701Z,10.03
2018-11-27T19:53:42.182Z,11.07
2018-11-27T19:56:09.631Z,10.50
2018-11-27T19:58:37.097Z,9.90
2018-11-27T20:01:04.532Z,9.37
2018-11-27T20:03:31.987Z,9.47
2018-11-27T20:05:59.439Z,9.40
2018-11-27T20:08:26.928Z,8.90
2018-11-27T20:10:54.418Z,8.97
2018-11-27T20:13:23.006Z,10.37
2018-11-27T20:15:50.464Z,8.97
2018-11-27T20:18:19.108Z,9.03
2018-11-27T20:20:46.560Z,8.77
2018-11-27T20:23:14.014Z,9.63
2018-11-27T20:25:41.434Z,8.50
2018-11-27T20:28:08.920Z,9.07
2018-11-27T20:30:37.582Z,9.57
2018-11-27T20:33:05.048Z,9.97
2018-11-27T20:35:32.508Z,9.83
2018-11-27T20:37:59.999Z,11.90
2018-11-27T20:40:27.458Z,9.27
2018-11-27T20:42:54.928Z,9.97
2018-11-27T20:45:22.372Z,9.50
2018-11-27T20:47:49.874Z,9.53
2018-11-27T20:50:17.327Z,9.63
2018-11-27T20:52:44.801Z,9.73
2018-11-27T20:55:12.295Z,10.07
2018-11-27T20:57:40.304Z,11.23
2018-11-27T21:00:08.891Z,15.53
2018-11-27T21:02:36.354Z,9.90
2018-11-27T21:05:03.813Z,9.90
2018-11-27T21:24:33.912Z,10.70
2018-11-27T21:27:01.408Z,12.57
2018-11-27T21:29:28.857Z,12.87
2018-11-27T21:31:56.314Z,12.53
2018-11-27T21:34:23.787Z,12.43
2018-11-27T21:36:51.244Z,11.63
2018-11-27T21:39:18.724Z,10.03
2018-11-27T21:41:47.178Z,12.00
2018-11-27T21:44:14.637Z,11.10
2018-11-27T21:46:42.112Z,11.07
2018-11-27T21:49:09.584Z,11.20
2018-11-27T21:51:37.000Z,10.57
2018-11-27T21:54:04.684Z,9.10
2018-11-27T21:56:32.121Z,10.20
2018-11-27T21:59:03.376Z,12.03
2018-11-27T22:01:30.815Z,9.13
2018-11-27T22:03:58.281Z,10.23
2018-11-27T22:06:25.770Z,9.93
2018-11-27T22:08:53.251Z,12.37
2018-11-27T22:11:20.696Z,14.10
2018-11-27T22:13:48.150Z,14.00
2018-11-27T22:16:16.502Z,11.50
2018-11-27T22:18:43.968Z,12.27
2018-11-27T22:21:15.055Z,11.10
2018-11-27T22:23:51.896Z,11.77
2018-11-27T22:26:20.574Z,10.37
2018-11-27T22:28:49.211Z,12.57
2018-11-27T22:31:16.730Z,11.97
2018-11-27T22:33:44.177Z,10.57
2018-11-27T22:36:11.635Z,11.53
2018-11-27T22:38:39.873Z,12.83
2018-11-27T22:41:08.417Z,11.70
2018-11-27T22:43:38.750Z,10.20
2018-11-27T22:46:06.248Z,19.63
2018-11-27T22:48:33.701Z,12.27
2018-11-27T22:51:02.334Z,11.60
2018-11-27T22:53:29.785Z,10.77
2018-11-27T22:55:57.223Z,16.10
2018-11-27T22:58:42.678Z,20.90
2018-11-27T23:01:10.124Z,13.37
2018-11-27T23:03:37.610Z,9.93
2018-11-27T23:06:05.072Z,9.17
2018-11-27T23:08:32.519Z,9.67
2018-11-27T23:10:59.970Z,12.83
2018-11-27T23:13:27.425Z,11.37
2018-11-27T23:15:54.869Z,10.60
2018-11-27T23:18:22.328Z,10.03
2018-11-27T23:20:49.808Z,9.93
2018-11-27T23:23:17.254Z,9.80
2018-11-27T23:25:45.662Z,10.30
2018-11-27T23:28:13.158Z,8.33
2018-11-27T23:30:40.589Z,8.90
2018-11-27T23:33:08.030Z,17.60
2018-11-27T23:35:35.487Z,9.37
2018-11-27T23:38:02.943Z,12.47
2018-11-27T23:40:30.392Z,11.93
2018-11-27T23:42:57.832Z,8.63
2018-11-27T23:45:25.320Z,10.83
2018-11-27T23:47:52.771Z,8.53
2018-11-27T23:50:20.343Z,10.30
2018-11-27T23:52:47.786Z,8.60
2018-11-27T23:55:15.266Z,8.77
2018-11-27T23:57:42.730Z,9.27
